Time;durP1;ratioP1;P1;durP2;ratioP2;P2;SDS_P1;SDS_P2;PMS_P1;PMS_P2;Temp;Humidity;BMP_temperature;BMP_pressure;BME280_temperature;BME280_humidity;BME280_pressure;Samples;Min_cycle;Max_cycle;Signal;HPM_P1;HPM_P2
2022/04/26 03:38:30;;;;;;;;;;;;;;;;;;5049015;28;978;-79
2022/04/26 03:40:58;;;;;;;;;;;;;;;;;;5061391;28;1180;-79
2022/04/26 03:43:24;;;;;;;;;;;;;;;;;;5061797;28;1121;-79
2022/04/26 03:45:49;;;;;;;;;;;;;;;;;;5084684;28;1116;-79
2022/04/26 03:48:15;;;;;;;;;;;;;;;;;;5053069;28;1894;-80
2022/04/26 03:50:40;;;;;;;;;;;;;;;;;;5070212;28;1218;-78
2022/04/26 03:53:06;;;;;;;;;;;;;;;;;;5058948;28;1234;-78
2022/04/26 03:55:31;;;;;;;;;;;;;;;;;;5050496;28;1144;-78
2022/04/26 03:57:57;;;;;;;;;;;;;;;;;;5056842;28;1149;-79
2022/04/26 04:00:23;;;;;;;;;;;;;;;;;;5045673;28;1367;-79
2022/04/26 04:02:48;;;;;;;;;;;;;;;;;;5066250;28;1273;-79
2022/04/26 04:05:14;;;;;;;;;;;;;;;;;;5080137;28;1178;-79
2022/04/26 04:07:40;;;;;;;;;;;;;;;;;;5062289;28;1176;-79
2022/04/26 04:10:05;;;;;;;;;;;;;;;;;;5042881;28;1902;-79
2022/04/26 04:12:39;;;;;;;;;;;;;;;;;;5051951;28;1323;-78
2022/04/26 04:15:05;;;;;;;;;;;;;;;;;;5063365;28;1116;-79
2022/04/26 04:17:31;;;;;;;;;;;;;;;;;;5062430;28;1283;-80
2022/04/26 04:19:57;;;;;;;;;;;;;;;;;;5060901;28;1412;-79
2022/04/26 04:22:22;;;;;;;;;;;;;;;;;;5049700;28;1159;-78
2022/04/26 04:24:47;;;;;;;;;;;;;;;;;;5060800;28;1259;-79
2022/04/26 04:27:13;;;;;;;;;;;;;;;;;;5054487;28;1212;-80
2022/04/26 04:29:38;;;;;;;;;;;;;;;;;;5074431;28;1907;-77
2022/04/26 04:32:03;;;;;;;;;;;;;;;;;;5030076;28;1160;-78
2022/04/26 04:34:33;;;;;;;;;;;;;;;;;;5057316;28;1247;-79
2022/04/26 04:36:58;;;;;;;;;;;;;;;;;;5050911;28;1192;-78
2022/04/26 04:39:24;;;;;;;;;;;;;;;;;;5062363;28;1125;-79
2022/04/26 04:41:51;;;;;;;;;;;;;;;;;;5045875;28;1410;-79
2022/04/26 04:44:17;;;;;;;;;;;;;;;;;;5062828;28;1198;-79
2022/04/26 04:46:43;;;;;;;;;;;;;;;;;;5063939;28;1266;-79
2022/04/26 04:49:08;;;;;;;;;;;;;;;;;;5052034;28;1901;-78
2022/04/26 04:51:33;;;;;;;;;;;;;;;;;;5058084;28;1199;-80
2022/04/26 04:53:58;;;;;;;;;;;;;;;;;;5080723;28;1206;-79
2022/04/26 04:56:27;;;;;;;;;;;;;;;;;;5053498;28;1215;-79
2022/04/26 04:58:53;;;;;;;;;;;;;;;;;;5053448;28;1215;-79
2022/04/26 05:01:21;;;;;;;;;;;;;;;;;;5068034;28;1234;-79
2022/04/26 05:03:46;;;;;;;;;;;;;;;;;;5080285;28;1242;-79
2022/04/26 05:06:15;;;;;;;;;;;;;;;;;;5081153;28;1171;-79
2022/04/26 05:08:41;;;;;;;;;;;;;;;;;;5051271;28;1910;-78
2022/04/26 05:11:06;;;;;;;;;;;;;;;;;;5044144;28;1197;-79
2022/04/26 05:13:31;;;;;;;;;;;;;;;;;;5047578;28;1315;-78
2022/04/26 05:15:57;;;;;;;;;;;;;;;;;;5067957;28;1160;-78
2022/04/26 05:18:28;;;;;;;;;;;;;;;;;;5065133;28;1445;-77
2022/04/26 05:20:54;;;;;;;;;;;;;;;;;;5079438;28;1294;-79
2022/04/26 05:26:02;;;;;;;;;;;;;;;;;;5066712;28;993;-79
2022/04/26 05:28:28;;;;;;;;;;;;;;;;;;5060720;28;1894;-79
2022/04/26 05:30:56;;;;;;;;;;;;;;;;;;5060572;28;1187;-80
2022/04/26 05:33:23;;;;;;;;;;;;;;;;;;5066607;28;1140;-79
2022/04/26 05:35:49;;;;;;;;;;;;;;;;;;5064664;28;1285;-78
2022/04/26 05:38:15;;;;;;;;;;;;;;;;;;5065413;28;1308;-79
2022/04/26 05:40:40;;;;;;;;;;;;;;;;;;5057278;28;1295;-79
2022/04/26 05:43:06;;;;;;;;;;;;;;;;;;5087519;28;1360;-79
2022/04/26 05:45:31;;;;;;;;;;;;;;;;;;5052096;28;1113;-80
2022/04/26 05:47:56;;;;;;;;;;;;;;;;;;5054892;28;1333;-78
2022/04/26 05:50:22;;;;;;;;;;;;;;;;;;5086988;28;1890;-79
2022/04/26 05:52:47;;;;;;;;;;;;;;;;;;5055212;28;1097;-78
2022/04/26 05:55:12;;;;;;;;;;;;;;;;;;5057458;28;1204;-79
2022/04/26 05:57:42;;;;;;;;;;;;;;;;;;5063030;28;1163;-78
2022/04/26 06:00:08;;;;;;;;;;;;;;;;;;5049218;28;1136;-77
2022/04/26 06:02:33;;;;;;;;;;;;;;;;;;5062859;28;1314;-78
2022/04/26 06:04:59;;;;;;;;;;;;;;;;;;5061277;28;1582;-79
2022/04/26 06:07:27;;;;;;;;;;;;;;;;;;5056951;28;1169;-78
2022/04/26 06:09:53;;;;;;;;;;;;;;;;;;5048613;28;1910;-79
2022/04/26 06:12:20;;;;;;;;;;;;;;;;;;5080989;28;1325;-80
2022/04/26 06:14:45;;;;;;;;;;;;;;;;;;5077580;28;1488;-80
2022/04/26 06:17:10;;;;;;;;;;;;;;;;;;5059243;28;1223;-80
2022/04/26 06:19:36;;;;;;;;;;;;;;;;;;5061848;28;1258;-80
2022/04/26 06:22:01;;;;;;;;;;;;;;;;;;5053992;28;1322;-79
2022/04/26 06:24:38;;;;;;;;;;;;;;;;;;5053741;28;1250;-80
2022/04/26 06:27:03;;;;;;;;;;;;;;;;;;5065754;28;1204;-79
2022/04/26 06:29:32;;;;;;;;;;;;;;;;;;5041582;28;1955;-80
2022/04/26 06:31:58;;;;;;;;;;;;;;;;;;5057545;28;1096;-81
2022/04/26 06:34:44;;;;;;;;;;;;;;;;;;5081057;28;830;-80
2022/04/26 06:37:09;;;;;;;;;;;;;;;;;;5047124;28;1367;-80
2022/04/26 06:39:35;;;;;;;;;;;;;;;;;;5061730;28;1198;-80
2022/04/26 06:42:01;;;;;;;;;;;;;;;;;;5063517;28;1144;-80
2022/04/26 06:44:32;;;;;;;;;;;;;;;;;;5044551;28;1503;-80
2022/04/26 06:46:58;;;;;;;;;;;;;;;;;;5047541;28;1465;-80
2022/04/26 06:49:33;;;;;;;;;;;;;;;;;;5062837;28;2049;-80
2022/04/26 06:51:58;;;;;;;;;;;;;;;;;;5048901;28;830;-81
2022/04/26 06:54:24;;;;;;;;;;;;;;;;;;5046832;28;1341;-80
2022/04/26 06:56:49;;;;;;;;;;;;;;;;;;5077853;28;893;-81
2022/04/26 06:59:15;;;;;;;;;;;;;;;;;;5078541;28;853;-80
2022/04/26 07:01:40;;;;;;;;;;;;;;;;;;5043825;28;1219;-80
2022/04/26 07:04:05;;;;;;;;;;;;;;;;;;5052672;28;1224;-80
2022/04/26 07:06:31;;;;;;;;;;;;;;;;;;5050552;28;1192;-81
2022/04/26 07:08:56;;;;;;;;;;;;;;;;;;5040581;28;1977;-79
2022/04/26 07:11:22;;;;;;;;;;;;;;;;;;5057208;28;1341;-79
2022/04/26 07:13:48;;;;;;;;;;;;;;;;;;5058376;28;1316;-78
2022/04/26 07:16:14;;;;;;;;;;;;;;;;;;5062151;28;1428;-79
2022/04/26 07:18:39;;;;;;;;;;;;;;;;;;5063872;28;1196;-79
2022/04/26 07:21:04;;;;;;;;;;;;;;;;;;5044875;28;1337;-79
2022/04/26 07:23:30;;;;;;;;;;;;;;;;;;5045764;28;1276;-80
2022/04/26 07:25:56;;;;;;;;;;;;;;;;;;5059692;28;1168;-80
2022/04/26 07:28:22;;;;;;;;;;;;;;;;;;5076612;28;1890;-80
2022/04/26 07:30:48;;;;;;;;;;;;;;;;;;5055999;28;1444;-79
2022/04/26 07:35:57;;;;;;;;;;;;;;;;;;5071620;28;969;-79
2022/04/26 07:38:23;;;;;;;;;;;;;;;;;;5078583;28;1297;-79
2022/04/26 07:40:48;;;;;;;;;;;;;;;;;;5075201;28;1155;-80
2022/04/26 07:43:13;;;;;;;;;;;;;;;;;;5067919;28;1349;-80
2022/04/26 07:45:39;;;;;;;;;;;;;;;;;;5046847;28;1372;-80
2022/04/26 07:48:05;;;;;;;;;;;;;;;;;;5062605;28;1343;-79
2022/04/26 07:50:31;;;;;;;;;;;;;;;;;;5040752;28;1874;-79
2022/04/26 07:52:57;;;;;;;;;;;;;;;;;;5048208;28;1645;-79
2022/04/26 07:55:22;;;;;;;;;;;;;;;;;;5042991;28;1290;-79
2022/04/26 07:57:47;;;;;;;;;;;;;;;;;;5089578;28;1144;-80
2022/04/26 08:00:14;;;;;;;;;;;;;;;;;;5064532;28;1239;-80
2022/04/26 08:02:39;;;;;;;;;;;;;;;;;;5064132;28;1174;-80
2022/04/26 08:05:05;;;;;;;;;;;;;;;;;;5063037;28;1203;-79
2022/04/26 08:07:31;;;;;;;;;;;;;;;;;;5065461;28;1219;-79
2022/04/26 08:09:57;;;;;;;;;;;;;;;;;;5059718;28;1977;-80
2022/04/26 08:12:22;;;;;;;;;;;;;;;;;;5060425;28;1231;-80
2022/04/26 08:14:47;;;;;;;;;;;;;;;;;;5038937;28;1330;-79
2022/04/26 08:17:15;;;;;;;;;;;;;;;;;;5068597;28;835;-80
2022/04/26 08:19:41;;;;;;;;;;;;;;;;;;5062469;28;1373;-81
2022/04/26 08:22:06;;;;;;;;;;;;;;;;;;5064800;28;1175;-81
2022/04/26 08:27:25;;;;;;;;;;;;;;;;;;5069968;28;631;-81
2022/04/26 08:29:54;;;;;;;;;;;;;;;;;;5048318;28;1953;-80
2022/04/26 08:32:21;;;;;;;;;;;;;;;;;;5070437;28;1346;-81
2022/04/26 08:34:47;;;;;;;;;;;;;;;;;;5048492;28;1235;-79
2022/04/26 08:37:13;;;;;;;;;;;;;;;;;;5052298;28;1162;-79
2022/04/26 08:39:51;;;;;;;;;;;;;;;;;;5061577;28;1188;-81
2022/04/26 08:42:17;;;;;;;;;;;;;;;;;;5054009;28;1148;-80
2022/04/26 08:44:45;;;;;;;;;;;;;;;;;;5043835;28;977;-80
2022/04/26 08:52:46;;;;;;;;;;;;;;;;;;5068447;28;1023;-80
2022/04/26 08:55:11;;;;;;;;;;;;;;;;;;5083635;28;1383;-79
2022/04/26 08:57:49;;;;;;;;;;;;;;;;;;5066941;28;1357;-80
2022/04/26 09:00:14;;;;;;;;;;;;;;;;;;5066789;28;1180;-81
2022/04/26 09:02:44;;;;;;;;;;;;;;;;;;5068131;28;1231;-81
2022/04/26 09:05:14;;;;;;;;;;;;;;;;;;5064381;28;1346;-79
2022/04/26 09:07:48;;;;;;;;;;;;;;;;;;5050159;28;1105;-80
2022/04/26 09:10:15;;;;;;;;;;;;;;;;;;5044535;28;1901;-79
2022/04/26 09:13:20;;;;;;;;;;;;;;;;;;5056186;28;1185;-80
2022/04/26 09:15:48;;;;;;;;;;;;;;;;;;5009294;28;1390;-80
2022/04/26 09:18:15;;;;;;;;;;;;;;;;;;5009560;28;1184;-81
2022/04/26 09:20:44;;;;;;;;;;;;;;;;;;5007815;28;1265;-81
2022/04/26 09:23:19;;;;;;;;;;;;;;;;;;5067335;28;1242;-83
2022/04/26 09:25:46;;;;;;;;;;;;;;;;;;5060549;28;1335;-82
2022/04/26 09:28:38;;;;;;;;;;;;;;;;;;5064972;28;1275;-81
2022/04/26 09:31:21;;;;;;;;;;;;;;;;;;5053348;28;1172;-77
2022/04/26 09:33:49;;;;;;;;;;;;;;;;;;5079533;28;1276;-78
2022/04/26 09:36:15;;;;;;;;;;;;;;;;;;5051440;28;1156;-79
2022/04/26 09:38:41;;;;;;;;;;;;;;;;;;5063688;28;1211;-80
2022/04/26 09:41:09;;;;;;;;;;;;;;;;;;5064052;28;1207;-79
2022/04/26 09:43:35;;;;;;;;;;;;;;;;;;5061243;28;1270;-81
2022/04/26 09:46:00;;;;;;;;;;;;;;;;;;5063035;28;1209;-80
2022/04/26 09:48:30;;;;;;;;;;;;;;;;;;5066413;28;1933;-77
2022/04/26 09:50:57;;;;;;;;;;;;;;;;;;5051801;28;1315;-80
2022/04/26 09:53:22;;;;;;;;;;;;;;;;;;5056292;28;1173;-79
2022/04/26 09:55:56;;;;;;;;;;;;;;;;;;5044064;28;1282;-80
2022/04/26 09:58:22;;;;;;;;;;;;;;;;;;5056974;28;1381;-79
2022/04/26 10:00:51;;;;;;;;;;;;;;;;;;5059876;28;1164;-80
2022/04/26 10:03:22;;;;;;;;;;;;;;;;;;5039448;28;1165;-79
2022/04/26 10:05:49;;;;;;;;;;;;;;;;;;5044884;28;1148;-81
2022/04/26 10:08:16;;;;;;;;;;;;;;;;;;5047168;28;1426;-80
2022/04/26 10:10:42;;;;;;;;;;;;;;;;;;5045389;28;1918;-79
2022/04/26 10:15:53;;;;;;;;;;;;;;;;;;5046843;28;1023;-78
2022/04/26 10:18:26;;;;;;;;;;;;;;;;;;5047601;28;1191;-80
2022/04/26 10:20:51;;;;;;;;;;;;;;;;;;5043329;28;1185;-81
2022/04/26 10:23:16;;;;;;;;;;;;;;;;;;5046560;28;1317;-80
2022/04/26 10:26:01;;;;;;;;;;;;;;;;;;5076455;28;1100;-79
2022/04/26 10:28:27;;;;;;;;;;;;;;;;;;5046552;28;1961;-80
2022/04/26 10:30:54;;;;;;;;;;;;;;;;;;5079702;28;1234;-79
2022/04/26 10:33:46;;;;;;;;;;;;;;;;;;5049252;28;1149;-81
2022/04/26 10:36:35;;;;;;;;;;;;;;;;;;5042574;28;1200;-81
2022/04/26 10:39:06;;;;;;;;;;;;;;;;;;5047013;28;1050;-81
2022/04/26 10:41:38;;;;;;;;;;;;;;;;;;5047327;28;1231;-79
2022/04/26 10:44:12;;;;;;;;;;;;;;;;;;5045370;28;1021;-80
2022/04/26 10:46:38;;;;;;;;;;;;;;;;;;5048908;28;1160;-81
2022/04/26 10:49:29;;;;;;;;;;;;;;;;;;5044397;28;1943;-80
2022/04/26 10:51:55;;;;;;;;;;;;;;;;;;5045481;28;1466;-80
2022/04/26 10:54:40;;;;;;;;;;;;;;;;;;5048536;28;1160;-81
2022/04/26 10:57:05;;;;;;;;;;;;;;;;;;5046674;28;1271;-80
2022/04/26 10:59:30;;;;;;;;;;;;;;;;;;5061105;28;1178;-76
2022/04/26 11:01:55;;;;;;;;;;;;;;;;;;5046826;28;1249;-76
2022/04/26 11:04:21;;;;;;;;;;;;;;;;;;5064043;28;1211;-77
2022/04/26 11:06:47;;;;;;;;;;;;;;;;;;5078892;28;1233;-76
2022/04/26 11:09:14;;;;;;;;;;;;;;;;;;5056192;28;1891;-77
2022/04/26 11:11:49;;;;;;;;;;;;;;;;;;5065449;28;1179;-76
2022/04/26 11:14:17;;;;;;;;;;;;;;;;;;5047078;28;1253;-75
2022/04/26 11:17:03;;;;;;;;;;;;;;;;;;5068360;28;1148;-76
2022/04/26 11:19:31;;;;;;;;;;;;;;;;;;5046376;28;1259;-79
2022/04/26 11:21:57;;;;;;;;;;;;;;;;;;5061286;28;1350;-78
2022/04/26 11:29:52;;;;;;;;;;;;;;;;;;5070552;28;1898;-79
2022/04/26 11:32:27;;;;;;;;;;;;;;;;;;5048508;28;1236;-80
2022/04/26 11:34:53;;;;;;;;;;;;;;;;;;5067675;28;1297;-79
2022/04/26 11:37:18;;;;;;;;;;;;;;;;;;5051802;28;1265;-80
2022/04/26 11:39:44;;;;;;;;;;;;;;;;;;5063667;28;1113;-81
2022/04/26 11:42:10;;;;;;;;;;;;;;;;;;5066525;28;1077;-81
2022/04/26 11:44:35;;;;;;;;;;;;;;;;;;5063584;28;1191;-81
2022/04/26 11:47:00;;;;;;;;;;;;;;;;;;5049689;28;1322;-80
2022/04/26 11:49:38;;;;;;;;;;;;;;;;;;5062806;28;1871;-79
2022/04/26 11:52:04;;;;;;;;;;;;;;;;;;5048270;28;1339;-80
2022/04/26 11:54:38;;;;;;;;;;;;;;;;;;5082543;28;1231;-80
2022/04/26 11:57:04;;;;;;;;;;;;;;;;;;5066991;28;1329;-79
2022/04/26 11:59:31;;;;;;;;;;;;;;;;;;5052106;28;1167;-81
2022/04/26 12:01:57;;;;;;;;;;;;;;;;;;5049251;28;1187;-79
2022/04/26 12:04:26;;;;;;;;;;;;;;;;;;5061115;28;1349;-80
2022/04/26 12:06:54;;;;;;;;;;;;;;;;;;5044371;28;1134;-79
2022/04/26 12:09:22;;;;;;;;;;;;;;;;;;5070253;28;1898;-81
2022/04/26 12:12:02;;;;;;;;;;;;;;;;;;5057078;28;1593;-80
2022/04/26 12:14:27;;;;;;;;;;;;;;;;;;5048840;28;1164;-79
2022/04/26 12:16:56;;;;;;;;;;;;;;;;;;5061653;28;1302;-79
2022/04/26 12:19:35;;;;;;;;;;;;;;;;;;5078912;28;1312;-80
2022/04/26 12:22:01;;;;;;;;;;;;;;;;;;5056548;28;1173;-80
2022/04/26 12:24:29;;;;;;;;;;;;;;;;;;5060538;28;1225;-80
2022/04/26 12:27:02;;;;;;;;;;;;;;;;;;5054826;28;1297;-81
2022/04/26 12:29:39;;;;;;;;;;;;;;;;;;5060922;28;1906;-80
2022/04/26 12:32:08;;;;;;;;;;;;;;;;;;5056797;28;1191;-80
2022/04/26 12:34:33;;;;;;;;;;;;;;;;;;5045262;28;1369;-80
2022/04/26 12:37:21;;;;;;;;;;;;;;;;;;5088599;28;1217;-80
2022/04/26 12:39:58;;;;;;;;;;;;;;;;;;5057436;28;1195;-80
2022/04/26 12:42:26;;;;;;;;;;;;;;;;;;5036072;28;1144;-80
2022/04/26 12:45:02;;;;;;;;;;;;;;;;;;5056115;28;1329;-81
2022/04/26 12:50:29;;;;;;;;;;;;;;;;;;5043621;28;1882;-80
2022/04/26 12:52:55;;;;;;;;;;;;;;;;;;5040436;28;1446;-81
2022/04/26 12:55:39;;;;;;;;;;;;;;;;;;5036151;28;1514;-79
2022/04/26 12:58:11;;;;;;;;;;;;;;;;;;5055614;28;1117;-80
2022/04/26 13:00:39;;;;;;;;;;;;;;;;;;5063628;28;1113;-80
2022/04/26 13:03:06;;;;;;;;;;;;;;;;;;5061426;28;1144;-80
2022/04/26 13:05:35;;;;;;;;;;;;;;;;;;5045856;28;1303;-82
2022/04/26 13:08:04;;;;;;;;;;;;;;;;;;5047207;28;1200;-81
2022/04/26 13:10:30;;;;;;;;;;;;;;;;;;5075920;28;1945;-80
2022/04/26 13:12:55;;;;;;;;;;;;;;;;;;5065093;28;1319;-79
2022/04/26 13:15:23;;;;;;;;;;;;;;;;;;5047647;28;1164;-80
2022/04/26 13:17:49;;;;;;;;;;;;;;;;;;5068758;28;1167;-80
2022/04/26 13:20:15;;;;;;;;;;;;;;;;;;5043769;28;1384;-78
2022/04/26 13:22:40;;;;;;;;;;;;;;;;;;5058497;28;1204;-82
2022/04/26 13:25:10;;;;;;;;;;;;;;;;;;5062817;28;1355;-81
2022/04/26 13:27:36;;;;;;;;;;;;;;;;;;5064418;28;1478;-80
2022/04/26 13:30:02;;;;;;;;;;;;;;;;;;5065138;28;2366;-81
2022/04/26 13:32:30;;;;;;;;;;;;;;;;;;5065836;28;1200;-81
2022/04/26 13:34:55;;;;;;;;;;;;;;;;;;5065866;28;1124;-82
2022/04/26 13:37:21;;;;;;;;;;;;;;;;;;5067809;28;1144;-82
2022/04/26 13:39:46;;;;;;;;;;;;;;;;;;5067641;28;1407;-81
2022/04/26 13:42:12;;;;;;;;;;;;;;;;;;5061360;28;1251;-82
2022/04/26 13:44:38;;;;;;;;;;;;;;;;;;5044478;28;1186;-82
2022/04/26 13:47:04;;;;;;;;;;;;;;;;;;5059912;28;1311;-82
2022/04/26 13:49:34;;;;;;;;;;;;;;;;;;5048517;28;1963;-82
2022/04/26 13:52:00;;;;;;;;;;;;;;;;;;5050139;28;1313;-81
2022/04/26 13:54:27;;;;;;;;;;;;;;;;;;5069365;28;1304;-82
2022/04/26 13:56:53;;;;;;;;;;;;;;;;;;5071218;28;1182;-80
2022/04/26 13:59:18;;;;;;;;;;;;;;;;;;5066165;28;1077;-80
2022/04/26 14:01:43;;;;;;;;;;;;;;;;;;5068668;28;1124;-83
2022/04/26 14:04:09;;;;;;;;;;;;;;;;;;5067419;28;1192;-81
2022/04/26 14:06:34;;;;;;;;;;;;;;;;;;5048850;28;1290;-82
2022/04/26 14:08:59;;;;;;;;;;;;;;;;;;5049927;28;1951;-81
2022/04/26 14:11:24;;;;;;;;;;;;;;;;;;5064793;28;1373;-80
2022/04/26 14:22:02;;;;;;;;;;;;;;;;;;5068938;28;1056;-81
2022/04/26 14:24:28;;;;;;;;;;;;;;;;;;5048742;28;1167;-82
2022/04/26 14:26:53;;;;;;;;;;;;;;;;;;5064953;28;1157;-81
2022/04/26 14:29:19;;;;;;;;;;;;;;;;;;5058138;28;1983;-82
2022/04/26 14:31:44;;;;;;;;;;;;;;;;;;5066606;28;1208;-81
2022/04/26 14:34:11;;;;;;;;;;;;;;;;;;5066262;28;1176;-81
2022/04/26 14:36:36;;;;;;;;;;;;;;;;;;5033260;28;1357;-82
2022/04/26 14:39:01;;;;;;;;;;;;;;;;;;5053224;28;1141;-81
2022/04/26 14:41:27;;;;;;;;;;;;;;;;;;5046787;28;1086;-82
2022/04/26 14:43:55;;;;;;;;;;;;;;;;;;5045077;28;1383;-82
2022/04/26 14:46:21;;;;;;;;;;;;;;;;;;5045199;28;1026;-84
2022/04/26 14:48:47;;;;;;;;;;;;;;;;;;5047815;28;1882;-81
2022/04/26 14:51:13;;;;;;;;;;;;;;;;;;5075905;28;1163;-82
2022/04/26 14:53:39;;;;;;;;;;;;;;;;;;5062320;28;1392;-81
2022/04/26 14:56:05;;;;;;;;;;;;;;;;;;5065196;28;1157;-81
2022/04/26 14:58:37;;;;;;;;;;;;;;;;;;5047229;28;1313;-83
2022/04/26 15:01:02;;;;;;;;;;;;;;;;;;5066489;28;1214;-81
2022/04/26 15:03:28;;;;;;;;;;;;;;;;;;5066507;28;1243;-79
2022/04/26 15:05:54;;;;;;;;;;;;;;;;;;5054808;28;1325;-82
2022/04/26 15:11:04;;;;;;;;;;;;;;;;;;5050080;28;1044;-81
2022/04/26 15:19:01;;;;;;;;;;;;;;;;;;5075639;28;1099;-81
2022/04/26 15:21:26;;;;;;;;;;;;;;;;;;5080699;28;1337;-80
2022/04/26 15:23:53;;;;;;;;;;;;;;;;;;5063752;28;1187;-81
2022/04/26 15:26:19;;;;;;;;;;;;;;;;;;5088177;28;1257;-80
2022/04/26 15:28:44;;;;;;;;;;;;;;;;;;5057209;28;2019;-81
2022/04/26 15:31:10;;;;;;;;;;;;;;;;;;5058910;28;1157;-82
2022/04/26 15:33:35;;;;;;;;;;;;;;;;;;5070079;28;1352;-81
2022/04/26 15:36:01;;;;;;;;;;;;;;;;;;5053014;28;1120;-81
2022/04/26 15:38:29;;;;;;;;;;;;;;;;;;5045648;28;1200;-81
2022/04/26 15:41:01;;;;;;;;;;;;;;;;;;5068374;28;1293;-81
2022/04/26 15:43:28;;;;;;;;;;;;;;;;;;5044585;28;1069;-81
2022/04/26 15:45:54;;;;;;;;;;;;;;;;;;5062635;28;1308;-81
2022/04/26 15:48:19;;;;;;;;;;;;;;;;;;5066783;28;1137;-80
2022/04/26 15:50:45;;;;;;;;;;;;;;;;;;5037596;28;1894;-81
2022/04/26 15:53:10;;;;;;;;;;;;;;;;;;5076630;28;1192;-81
2022/04/26 15:55:35;;;;;;;;;;;;;;;;;;5050066;28;1401;-80
2022/04/26 15:58:00;;;;;;;;;;;;;;;;;;5059886;28;1718;-81
2022/04/26 16:00:26;;;;;;;;;;;;;;;;;;5041433;28;1168;-80
2022/04/26 16:02:53;;;;;;;;;;;;;;;;;;5061714;28;1246;-81
2022/04/26 16:05:19;;;;;;;;;;;;;;;;;;5050086;28;1256;-80
2022/04/26 16:07:44;;;;;;;;;;;;;;;;;;5037785;28;1355;-80
2022/04/26 16:21:26;;;;;;;;;;;;;;;;;;5044025;28;1012;-80
2022/04/26 16:23:54;;;;;;;;;;;;;;;;;;5046387;28;1329;-81
2022/04/26 16:26:24;;;;;;;;;;;;;;;;;;5043890;28;1192;-80
2022/04/26 16:28:51;;;;;;;;;;;;;;;;;;5042199;28;1918;-81
2022/04/26 16:31:18;;;;;;;;;;;;;;;;;;5044517;28;1305;-80
2022/04/26 16:33:43;;;;;;;;;;;;;;;;;;5043941;28;1317;-80
2022/04/26 16:36:11;;;;;;;;;;;;;;;;;;5043233;28;1191;-80
2022/04/26 16:38:36;;;;;;;;;;;;;;;;;;5045341;28;1169;-81
2022/04/26 16:41:04;;;;;;;;;;;;;;;;;;5058817;28;1189;-81
2022/04/26 16:43:39;;;;;;;;;;;;;;;;;;5043257;28;1294;-80
2022/04/26 16:46:04;;;;;;;;;;;;;;;;;;5049150;28;1125;-80
2022/04/26 16:48:30;;;;;;;;;;;;;;;;;;5068182;28;1153;-82
2022/04/26 16:50:55;;;;;;;;;;;;;;;;;;5066000;28;1890;-81
2022/04/26 16:53:40;;;;;;;;;;;;;;;;;;5069162;28;1117;-81
2022/04/26 16:56:06;;;;;;;;;;;;;;;;;;5051058;28;1109;-82
2022/04/26 16:58:32;;;;;;;;;;;;;;;;;;5049072;28;1364;-82
2022/04/26 17:00:57;;;;;;;;;;;;;;;;;;5049540;28;1364;-80
2022/04/26 17:03:26;;;;;;;;;;;;;;;;;;5069623;28;1153;-81
2022/04/26 17:05:51;;;;;;;;;;;;;;;;;;5067034;28;1101;-81
2022/04/26 17:08:17;;;;;;;;;;;;;;;;;;5037333;28;1231;-80
2022/04/26 17:10:43;;;;;;;;;;;;;;;;;;5044994;28;1973;-80
2022/04/26 17:13:09;;;;;;;;;;;;;;;;;;5050112;28;1216;-80
2022/04/26 17:15:34;;;;;;;;;;;;;;;;;;5044983;28;1210;-81
2022/04/26 17:17:59;;;;;;;;;;;;;;;;;;5071102;28;1188;-82
2022/04/26 17:20:27;;;;;;;;;;;;;;;;;;5047373;28;1082;-81
2022/04/26 17:22:53;;;;;;;;;;;;;;;;;;5068955;28;1182;-80
2022/04/26 17:25:37;;;;;;;;;;;;;;;;;;5062665;28;1196;-80
2022/04/26 17:28:09;;;;;;;;;;;;;;;;;;5062474;28;1210;-81
2022/04/26 17:30:34;;;;;;;;;;;;;;;;;;5045806;28;1890;-81
2022/04/26 17:32:59;;;;;;;;;;;;;;;;;;5054665;28;1188;-81
2022/04/26 17:35:31;;;;;;;;;;;;;;;;;;5066654;28;1228;-80
2022/04/26 17:37:56;;;;;;;;;;;;;;;;;;5069593;28;1192;-81
2022/04/26 17:40:21;;;;;;;;;;;;;;;;;;5067604;28;1236;-81
2022/04/26 17:42:47;;;;;;;;;;;;;;;;;;5068398;28;1183;-79
2022/04/26 17:45:12;;;;;;;;;;;;;;;;;;5054864;28;1169;-79
2022/04/26 17:47:38;;;;;;;;;;;;;;;;;;5051440;28;1249;-81
2022/04/26 17:50:05;;;;;;;;;;;;;;;;;;5067013;28;1956;-80
2022/04/26 17:52:30;;;;;;;;;;;;;;;;;;5069219;28;1097;-81
2022/04/26 17:57:40;;;;;;;;;;;;;;;;;;5058296;28;1085;-81
2022/04/26 18:00:09;;;;;;;;;;;;;;;;;;5063561;28;1252;-79
2022/04/26 18:02:41;;;;;;;;;;;;;;;;;;5047447;28;1255;-80
2022/04/26 18:05:08;;;;;;;;;;;;;;;;;;5052202;28;1109;-81
2022/04/26 18:07:34;;;;;;;;;;;;;;;;;;5066936;28;1259;-80
2022/04/26 18:09:59;;;;;;;;;;;;;;;;;;5060586;28;1901;-81
2022/04/26 18:12:24;;;;;;;;;;;;;;;;;;5065422;28;1313;-80
2022/04/26 18:14:54;;;;;;;;;;;;;;;;;;5056236;28;1203;-80
2022/04/26 18:17:19;;;;;;;;;;;;;;;;;;5055822;28;1293;-81
2022/04/26 18:19:45;;;;;;;;;;;;;;;;;;5045382;28;1429;-80
2022/04/26 18:22:10;;;;;;;;;;;;;;;;;;5064139;28;1221;-80
2022/04/26 18:24:35;;;;;;;;;;;;;;;;;;5054396;28;1361;-80
2022/04/26 18:27:00;;;;;;;;;;;;;;;;;;5048071;28;1195;-81
2022/04/26 18:29:26;;;;;;;;;;;;;;;;;;5056081;28;1898;-81
2022/04/26 18:31:51;;;;;;;;;;;;;;;;;;5051123;28;1208;-81
2022/04/26 18:34:19;;;;;;;;;;;;;;;;;;5062717;28;1346;-80
2022/04/26 18:36:45;;;;;;;;;;;;;;;;;;5063592;28;1144;-80
2022/04/26 18:39:10;;;;;;;;;;;;;;;;;;5050856;28;1124;-80
2022/04/26 18:41:37;;;;;;;;;;;;;;;;;;5045994;28;1152;-81
2022/04/26 18:44:24;;;;;;;;;;;;;;;;;;5049162;28;1174;-81
2022/04/26 18:46:50;;;;;;;;;;;;;;;;;;5040899;28;1267;-81
2022/04/26 18:49:16;;;;;;;;;;;;;;;;;;5056172;28;1902;-80
2022/04/26 18:51:43;;;;;;;;;;;;;;;;;;5045327;28;1148;-80
2022/04/26 18:54:08;;;;;;;;;;;;;;;;;;5044859;28;1313;-81
2022/04/26 18:56:36;;;;;;;;;;;;;;;;;;5078836;28;1278;-80
2022/04/26 18:59:02;;;;;;;;;;;;;;;;;;5063914;28;1298;-81
2022/04/26 19:01:27;;;;;;;;;;;;;;;;;;5048967;28;1156;-80
2022/04/26 19:03:53;;;;;;;;;;;;;;;;;;5046033;28;1081;-81
2022/04/26 19:06:18;;;;;;;;;;;;;;;;;;5052899;28;1193;-81
2022/04/26 19:08:44;;;;;;;;;;;;;;;;;;5063722;28;1898;-81
2022/04/26 19:13:56;;;;;;;;;;;;;;;;;;5065056;28;1072;-81
2022/04/26 19:16:21;;;;;;;;;;;;;;;;;;5065800;28;1193;-80
2022/04/26 19:18:46;;;;;;;;;;;;;;;;;;5065232;28;1183;-80
2022/04/26 19:21:12;;;;;;;;;;;;;;;;;;5059917;28;1279;-81
2022/04/26 19:23:37;;;;;;;;;;;;;;;;;;5067088;28;1215;-81
2022/04/26 19:26:02;;;;;;;;;;;;;;;;;;5064900;28;1160;-80
2022/04/26 19:28:49;;;;;;;;;;;;;;;;;;5068638;28;1251;-80
2022/04/26 19:31:14;;;;;;;;;;;;;;;;;;5045188;28;1449;-80
2022/04/26 19:33:40;;;;;;;;;;;;;;;;;;5045574;28;1226;-81
2022/04/26 19:36:06;;;;;;;;;;;;;;;;;;5042762;28;1178;-81
2022/04/26 19:38:31;;;;;;;;;;;;;;;;;;5047351;28;1117;-81
2022/04/26 19:40:57;;;;;;;;;;;;;;;;;;5077707;28;1084;-81
2022/04/26 19:43:22;;;;;;;;;;;;;;;;;;5063612;28;1246;-80
2022/04/26 19:45:48;;;;;;;;;;;;;;;;;;5059931;28;1129;-81
2022/04/26 19:48:14;;;;;;;;;;;;;;;;;;5067985;28;1152;-81
2022/04/26 19:53:23;;;;;;;;;;;;;;;;;;5061716;28;1095;-81
2022/04/26 19:55:48;;;;;;;;;;;;;;;;;;5052979;28;1176;-80
2022/04/26 19:58:14;;;;;;;;;;;;;;;;;;5045532;28;1297;-81
2022/04/26 20:00:42;;;;;;;;;;;;;;;;;;5044081;28;1231;-81
2022/04/26 20:03:08;;;;;;;;;;;;;;;;;;5059207;28;1188;-78
2022/04/26 20:05:33;;;;;;;;;;;;;;;;;;5043775;28;1134;-77
2022/04/26 20:07:58;;;;;;;;;;;;;;;;;;5043974;28;1132;-82
2022/04/26 20:10:24;;;;;;;;;;;;;;;;;;5043907;28;1890;-81
2022/04/26 20:12:49;;;;;;;;;;;;;;;;;;5051627;28;1231;-82
2022/04/26 20:15:15;;;;;;;;;;;;;;;;;;5090086;28;1147;-81
2022/04/26 20:17:41;;;;;;;;;;;;;;;;;;5064554;28;1145;-80
2022/04/26 20:20:07;;;;;;;;;;;;;;;;;;5061999;28;1124;-80
2022/04/26 20:22:33;;;;;;;;;;;;;;;;;;5032551;28;1117;-81
2022/04/26 20:24:59;;;;;;;;;;;;;;;;;;5062170;28;1466;-80
2022/04/26 20:30:11;;;;;;;;;;;;;;;;;;5063761;28;1918;-82
2022/04/26 20:32:36;;;;;;;;;;;;;;;;;;5060665;28;1148;-81
2022/04/26 20:35:03;;;;;;;;;;;;;;;;;;5059056;28;1187;-82
2022/04/26 20:37:29;;;;;;;;;;;;;;;;;;5065382;28;1160;-81
2022/04/26 20:39:54;;;;;;;;;;;;;;;;;;5063550;28;1160;-81
2022/04/26 20:42:22;;;;;;;;;;;;;;;;;;5056049;28;1228;-82
2022/04/26 20:44:47;;;;;;;;;;;;;;;;;;5057189;28;1189;-81
2022/04/26 20:47:13;;;;;;;;;;;;;;;;;;5062579;28;1269;-82
2022/04/26 20:49:39;;;;;;;;;;;;;;;;;;5061288;28;1893;-81
2022/04/26 20:52:04;;;;;;;;;;;;;;;;;;5052171;28;1200;-81
2022/04/26 20:54:32;;;;;;;;;;;;;;;;;;5062930;28;1333;-81
2022/04/26 20:56:58;;;;;;;;;;;;;;;;;;5058598;28;1296;-82
2022/04/26 20:59:23;;;;;;;;;;;;;;;;;;5043317;28;1292;-82
2022/04/26 21:01:48;;;;;;;;;;;;;;;;;;5071906;28;1140;-81
2022/04/26 21:04:14;;;;;;;;;;;;;;;;;;5032655;28;1654;-81
2022/04/26 21:06:40;;;;;;;;;;;;;;;;;;5047352;28;1180;-81
2022/04/26 21:09:06;;;;;;;;;;;;;;;;;;5046618;28;1902;-82
2022/04/26 21:11:32;;;;;;;;;;;;;;;;;;5053843;28;1204;-81
2022/04/26 21:13:57;;;;;;;;;;;;;;;;;;5042430;28;1155;-81
2022/04/26 21:16:22;;;;;;;;;;;;;;;;;;5047084;28;1081;-82
2022/04/26 21:18:48;;;;;;;;;;;;;;;;;;5049303;28;1431;-82
2022/04/26 21:21:13;;;;;;;;;;;;;;;;;;5045629;28;1651;-82
2022/04/26 21:23:39;;;;;;;;;;;;;;;;;;5052030;28;1136;-82
2022/04/26 21:26:05;;;;;;;;;;;;;;;;;;5050877;28;1369;-81
2022/04/26 21:28:39;;;;;;;;;;;;;;;;;;5061711;28;1226;-81
2022/04/26 21:31:04;;;;;;;;;;;;;;;;;;5080943;28;1901;-81
2022/04/26 21:33:30;;;;;;;;;;;;;;;;;;5063258;28;1213;-81
2022/04/26 21:35:56;;;;;;;;;;;;;;;;;;5045167;28;1238;-82
2022/04/26 21:38:21;;;;;;;;;;;;;;;;;;5060556;28;1527;-82
2022/04/26 21:40:55;;;;;;;;;;;;;;;;;;5058388;28;1192;-82
2022/04/26 21:43:21;;;;;;;;;;;;;;;;;;5063399;28;1307;-82
2022/04/26 21:45:48;;;;;;;;;;;;;;;;;;5093531;28;1147;-83